Time;durP1;ratioP1;P1;durP2;ratioP2;P2;SDS_P1;SDS_P2;PMS_P1;PMS_P2;Temp;Humidity;BMP_temperature;BMP_pressure;BME280_temperature;BME280_humidity;BME280_pressure;Samples;Min_cycle;Max_cycle;Signal;HPM_P1;HPM_P2
2021/10/17 00:01:40;;;;;;;;;;;;;;;6.67;86.01;96821.63;5074105;28;19956;-76
2021/10/17 00:04:06;;;;;;;;;;;;;;;6.71;85.95;96822.06;5074219;28;19963;-76
2021/10/17 00:06:32;;;;;;;;;;;;;;;6.73;85.50;96824.50;5074026;28;19957;-76
2021/10/17 00:08:58;;;;;;;;;;;;;;;6.74;85.68;96829.53;5073908;28;19964;-76
2021/10/17 00:11:24;;;;;;;;;;;;;;;6.75;85.68;96831.16;5074015;28;19958;-76
2021/10/17 00:13:51;;;;;;;;;;;;;;;6.76;85.51;96827.56;5074046;28;19947;-76
2021/10/17 00:16:17;;;;;;;;;;;;;;;6.78;85.81;96827.34;5074195;28;20324;-76
2021/10/17 00:18:43;;;;;;;;;;;;;;;6.79;85.95;96826.38;5073949;28;19958;-76
2021/10/17 00:21:09;;;;;;;;;;;;;;;6.78;85.84;96829.97;5074045;28;20318;-76
2021/10/17 00:23:35;;;;;;;;;;;;;;;6.80;85.57;96833.19;5072843;28;19984;-76
2021/10/17 00:26:01;;;;;;;;;;;;;;;6.79;85.64;96832.41;5073175;28;19952;-76
2021/10/17 00:28:26;;;;;;;;;;;;;;;6.80;85.64;96831.38;5073622;28;19970;-76
2021/10/17 00:30:52;;;;;;;;;;;;;;;6.80;85.53;96827.97;5073610;28;19968;-77
2021/10/17 00:33:18;;;;;;;;;;;;;;;6.80;85.61;96827.97;5074020;28;19954;-76
2021/10/17 00:35:44;;;;;;;;;;;;;;;6.81;85.50;96830.41;5073627;28;19944;-77
2021/10/17 00:38:10;;;;;;;;;;;;;;;6.81;85.82;96827.81;5073505;28;19957;-76
2021/10/17 00:40:36;;;;;;;;;;;;;;;6.81;85.75;96820.00;5073640;28;19951;-76
2021/10/17 00:43:02;;;;;;;;;;;;;;;6.82;85.67;96832.00;5073627;28;19972;-76
2021/10/17 00:45:30;;;;;;;;;;;;;;;6.84;85.86;96824.00;5073649;28;19965;-76
2021/10/17 00:47:57;;;;;;;;;;;;;;;6.85;85.78;96826.44;5073697;28;19957;-77
2021/10/17 00:50:23;;;;;;;;;;;;;;;6.86;85.96;96822.03;5073466;28;19967;-76
2021/10/17 00:52:49;;;;;;;;;;;;;;;6.86;86.01;96824.63;5073647;28;19983;-76
2021/10/17 00:55:16;;;;;;;;;;;;;;;6.82;85.66;96823.41;5073600;28;19966;-76
2021/10/17 00:57:42;;;;;;;;;;;;;;;6.79;85.65;96816.75;5073532;28;20033;-76
2021/10/17 01:00:09;;;;;;;;;;;;;;;6.72;85.59;96823.72;5073451;28;19958;-76
2021/10/17 01:02:35;;;;;;;;;;;;;;;6.65;86.02;96820.22;5073174;28;19991;-76
2021/10/17 01:05:01;;;;;;;;;;;;;;;6.63;85.93;96822.97;5072285;28;20397;-76
2021/10/17 01:07:26;;;;;;;;;;;;;;;6.63;85.95;96817.78;5073306;28;19958;-76
2021/10/17 01:09:52;;;;;;;;;;;;;;;6.64;86.19;96819.41;5073495;28;20006;-76
2021/10/17 01:12:18;;;;;;;;;;;;;;;6.65;86.41;96813.19;5073568;28;19954;-76
2021/10/17 01:14:44;;;;;;;;;;;;;;;6.66;86.22;96814.81;5073329;28;20000;-77
2021/10/17 01:17:10;;;;;;;;;;;;;;;6.69;86.13;96808.41;5073396;28;19964;-76
2021/10/17 01:19:36;;;;;;;;;;;;;;;6.68;86.67;96809.44;5073118;28;20315;-76
2021/10/17 01:22:02;;;;;;;;;;;;;;;6.67;86.29;96800.78;5073038;28;20016;-76
2021/10/17 01:24:28;;;;;;;;;;;;;;;6.68;86.34;96797.19;5073373;28;19952;-76
2021/10/17 01:26:54;;;;;;;;;;;;;;;6.71;86.58;96801.22;5073312;28;20005;-77
2021/10/17 01:29:20;;;;;;;;;;;;;;;6.73;86.41;96801.06;5073274;28;20024;-76
2021/10/17 01:31:46;;;;;;;;;;;;;;;6.74;86.27;96797.44;5073269;28;19956;-76
2021/10/17 01:34:13;;;;;;;;;;;;;;;6.75;86.26;96793.84;5073591;28;20468;-76
2021/10/17 01:36:39;;;;;;;;;;;;;;;6.75;86.38;96788.66;5072922;28;19952;-76
2021/10/17 01:39:06;;;;;;;;;;;;;;;6.76;86.43;96800.66;5074785;28;20035;-77
2021/10/17 01:41:32;;;;;;;;;;;;;;;6.76;86.42;96793.69;5076878;28;19954;-76
2021/10/17 01:44:05;;;;;;;;;;;;;;;6.77;86.59;96795.28;5075456;28;20418;-77
2021/10/17 01:46:31;;;;;;;;;;;;;;;6.76;86.34;96792.84;5069056;28;19973;-76
2021/10/17 01:48:57;;;;;;;;;;;;;;;6.76;86.05;96782.41;5076818;28;20402;-76
2021/10/17 01:51:23;;;;;;;;;;;;;;;6.77;85.97;96784.06;5076789;28;19953;-76
2021/10/17 01:53:49;;;;;;;;;;;;;;;6.77;86.28;96784.06;5076539;28;20367;-77
2021/10/17 01:56:15;;;;;;;;;;;;;;;6.77;86.12;96786.66;5076461;28;19971;-76
2021/10/17 01:58:41;;;;;;;;;;;;;;;6.77;86.14;96786.66;5076661;28;19993;-77
2021/10/17 02:01:07;;;;;;;;;;;;;;;6.78;86.05;96783.84;5076571;28;20352;-77
2021/10/17 02:03:33;;;;;;;;;;;;;;;6.80;86.23;96781.06;5076261;28;20328;-76
2021/10/17 02:05:59;;;;;;;;;;;;;;;6.78;86.36;96778.63;5076458;28;19950;-76
2021/10/17 02:08:25;;;;;;;;;;;;;;;6.78;86.40;96775.22;5076470;28;19946;-76
2021/10/17 02:10:51;;;;;;;;;;;;;;;6.79;86.33;96776.84;5076581;28;19962;-76
2021/10/17 02:13:17;;;;;;;;;;;;;;;6.79;86.36;96769.03;5076216;28;19968;-77
2021/10/17 02:15:42;;;;;;;;;;;;;;;6.77;86.19;96777.03;5076296;28;20000;-76
2021/10/17 02:18:08;;;;;;;;;;;;;;;6.77;86.06;96776.22;5076116;28;19954;-76
2021/10/17 02:20:35;;;;;;;;;;;;;;;6.77;86.18;96774.44;5076358;28;19960;-76
2021/10/17 02:23:01;;;;;;;;;;;;;;;6.80;86.43;96768.81;5076008;28;19974;-76
2021/10/17 02:25:27;;;;;;;;;;;;;;;6.80;86.30;96775.84;5076303;28;19956;-76
2021/10/17 02:27:53;;;;;;;;;;;;;;;6.81;86.31;96767.06;5075986;28;19960;-77
2021/10/17 02:30:19;;;;;;;;;;;;;;;6.83;86.35;96776.28;5075998;28;20388;-76
2021/10/17 02:32:45;;;;;;;;;;;;;;;6.84;86.20;96767.47;5075884;28;19960;-76
2021/10/17 02:35:10;;;;;;;;;;;;;;;6.85;86.08;96773.50;5076214;28;19954;-76
2021/10/17 02:37:36;;;;;;;;;;;;;;;6.85;86.11;96771.69;5075859;28;20027;-76
2021/10/17 02:40:03;;;;;;;;;;;;;;;6.84;86.07;96767.47;5075958;28;20373;-76
2021/10/17 02:42:29;;;;;;;;;;;;;;;6.83;86.02;96765.88;5075567;28;20380;-77
2021/10/17 02:44:55;;;;;;;;;;;;;;;6.82;85.76;96761.63;5075675;28;20012;-76
2021/10/17 02:47:20;;;;;;;;;;;;;;;6.82;85.36;96760.84;5075564;28;19954;-76
2021/10/17 02:49:46;;;;;;;;;;;;;;;6.80;85.37;96760.22;5076119;28;19954;-76
2021/10/17 02:52:12;;;;;;;;;;;;;;;6.79;85.13;96763.81;5075532;28;20428;-75
2021/10/17 02:54:38;;;;;;;;;;;;;;;6.76;84.95;96765.00;5075773;28;20047;-76
2021/10/17 02:57:04;;;;;;;;;;;;;;;6.74;84.66;96769.59;5075436;28;20047;-76
2021/10/17 02:59:30;;;;;;;;;;;;;;;6.71;84.50;96762.13;5075460;28;20433;-76
2021/10/17 03:01:56;;;;;;;;;;;;;;;6.69;84.29;96766.72;5075431;28;20007;-76
2021/10/17 03:04:22;;;;;;;;;;;;;;;6.66;84.17;96767.91;5075589;28;19980;-76
2021/10/17 03:06:47;;;;;;;;;;;;;;;6.63;83.99;96770.88;5075212;28;20001;-76
2021/10/17 03:09:13;;;;;;;;;;;;;;;6.61;83.96;96772.84;5075076;28;20048;-77
2021/10/17 03:11:39;;;;;;;;;;;;;;;6.59;83.81;96774.84;5075200;28;20364;-76
2021/10/17 03:14:05;;;;;;;;;;;;;;;6.55;83.86;96764.97;5075000;28;19952;-76
2021/10/17 03:16:32;;;;;;;;;;;;;;;6.50;83.68;96774.13;5075337;28;19962;-76
2021/10/17 03:18:57;;;;;;;;;;;;;;;6.47;83.51;96769.31;5075228;28;20314;-76
2021/10/17 03:21:23;;;;;;;;;;;;;;;6.44;83.43;96753.22;5075453;28;20007;-76
2021/10/17 03:23:49;;;;;;;;;;;;;;;6.40;83.40;96765.81;5074935;28;20333;-76
2021/10/17 03:26:15;;;;;;;;;;;;;;;6.37;83.29;96757.56;5074789;28;19998;-77
2021/10/17 03:28:41;;;;;;;;;;;;;;;6.33;83.24;96757.13;5075242;28;19952;-76
2021/10/17 03:31:08;;;;;;;;;;;;;;;6.30;82.91;96763.50;5074703;28;19954;-77
2021/10/17 03:33:34;;;;;;;;;;;;;;;6.26;83.09;96756.25;5074804;28;19970;-77
2021/10/17 03:36:01;;;;;;;;;;;;;;;6.22;82.89;96755.81;5074870;28;19952;-76
2021/10/17 03:38:27;;;;;;;;;;;;;;;6.18;83.01;96758.97;5074820;28;19969;-77
2021/10/17 03:40:53;;;;;;;;;;;;;;;6.16;82.77;96753.13;5074677;28;19962;-77
2021/10/17 03:43:19;;;;;;;;;;;;;;;6.14;82.66;96755.91;5074347;28;19971;-76
2021/10/17 03:45:45;;;;;;;;;;;;;;;6.10;82.60;96752.03;5074588;28;19961;-76
2021/10/17 03:48:11;;;;;;;;;;;;;;;6.07;82.53;96755.81;5074314;28;20378;-76
2021/10/17 03:50:37;;;;;;;;;;;;;;;6.03;82.27;96756.38;5074291;28;20058;-76
2021/10/17 03:53:02;;;;;;;;;;;;;;;5.99;82.03;96763.72;5074510;28;20067;-76
2021/10/17 03:55:29;;;;;;;;;;;;;;;5.96;82.11;96761.47;5074491;28;20010;-76
2021/10/17 03:57:54;;;;;;;;;;;;;;;5.90;81.79;96752.56;5074290;28;19949;-76
2021/10/17 04:00:22;;;;;;;;;;;;;;;5.87;81.74;96757.31;5074338;28;20032;-76
2021/10/17 04:02:48;;;;;;;;;;;;;;;5.83;81.67;96759.47;5073401;28;19985;-77
2021/10/17 04:05:14;;;;;;;;;;;;;;;5.81;81.42;96756.25;5074065;28;19954;-77
2021/10/17 04:07:40;;;;;;;;;;;;;;;5.77;81.46;96768.00;5074369;28;20394;-76
2021/10/17 04:10:06;;;;;;;;;;;;;;;5.73;81.40;96758.94;5074101;28;19966;-77
2021/10/17 04:12:33;;;;;;;;;;;;;;;5.69;81.42;96761.09;5074174;28;19962;-76
2021/10/17 04:14:58;;;;;;;;;;;;;;;5.65;81.17;96759.84;5074010;28;19951;-76
2021/10/17 04:17:24;;;;;;;;;;;;;;;5.64;81.23;96757.41;5073803;28;20014;-76
2021/10/17 04:19:50;;;;;;;;;;;;;;;5.62;81.07;96760.19;5073795;28;19959;-76
2021/10/17 04:22:16;;;;;;;;;;;;;;;5.59;81.20;96754.56;5073934;28;19994;-76
2021/10/17 04:24:42;;;;;;;;;;;;;;;5.56;81.33;96763.50;5073863;28;20133;-77
2021/10/17 04:27:09;;;;;;;;;;;;;;;5.54;81.14;96759.47;5073535;28;20377;-77
2021/10/17 04:29:35;;;;;;;;;;;;;;;5.50;81.44;96759.00;5073790;28;19962;-76
2021/10/17 04:32:01;;;;;;;;;;;;;;;5.47;81.26;96754.97;5073635;28;20030;-77
2021/10/17 04:34:27;;;;;;;;;;;;;;;5.45;81.31;96758.75;5073579;28;19965;-77
2021/10/17 04:36:53;;;;;;;;;;;;;;;5.42;81.34;96759.13;5073322;28;19976;-77
2021/10/17 04:39:19;;;;;;;;;;;;;;;5.41;81.57;96758.28;5073525;28;19957;-77
2021/10/17 04:41:45;;;;;;;;;;;;;;;5.40;81.71;96766.28;5073892;28;20387;-77
2021/10/17 04:44:11;;;;;;;;;;;;;;;5.38;82.07;96760.44;5073510;28;19996;-77
2021/10/17 04:46:37;;;;;;;;;;;;;;;5.34;81.68;96754.00;5073691;28;20426;-76
2021/10/17 04:49:03;;;;;;;;;;;;;;;5.29;81.59;96751.88;5073769;28;20390;-76
2021/10/17 04:51:29;;;;;;;;;;;;;;;5.27;81.42;96753.84;5073476;28;20011;-77
2021/10/17 04:53:54;;;;;;;;;;;;;;;5.24;81.48;96746.44;5073664;28;19976;-77
2021/10/17 04:56:20;;;;;;;;;;;;;;;5.21;81.27;96749.41;5073835;28;19957;-77
2021/10/17 04:58:46;;;;;;;;;;;;;;;5.17;81.31;96756.72;5073439;28;19957;-77
2021/10/17 05:01:12;;;;;;;;;;;;;;;5.14;81.09;96754.47;5073597;28;20048;-77
2021/10/17 05:03:38;;;;;;;;;;;;;;;5.13;80.72;96755.47;5073318;28;20341;-77
2021/10/17 05:06:04;;;;;;;;;;;;;;;5.12;80.82;96758.22;5073388;28;19954;-77
2021/10/17 05:08:30;;;;;;;;;;;;;;;5.08;80.94;96753.41;5073212;28;20437;-77
2021/10/17 05:10:56;;;;;;;;;;;;;;;5.08;81.53;96756.00;5073205;28;19952;-77
2021/10/17 05:13:22;;;;;;;;;;;;;;;5.07;81.79;96749.16;5075806;28;19961;-77
2021/10/17 05:15:48;;;;;;;;;;;;;;;5.06;82.16;96757.13;5077282;28;20449;-77
2021/10/17 05:18:14;;;;;;;;;;;;;;;5.05;82.54;96752.94;5077582;28;19962;-77
2021/10/17 05:20:39;;;;;;;;;;;;;;;5.06;82.71;96752.75;5077140;28;20408;-77
2021/10/17 05:23:06;;;;;;;;;;;;;;;5.06;82.93;96746.72;5077360;28;19974;-77
2021/10/17 05:25:32;;;;;;;;;;;;;;;5.07;83.11;96743.97;5077148;28;20312;-77
2021/10/17 05:27:58;;;;;;;;;;;;;;;5.09;83.39;96741.19;5077155;28;19959;-77
2021/10/17 05:30:24;;;;;;;;;;;;;;;5.12;83.61;96745.22;5076817;28;20002;-77
2021/10/17 05:32:50;;;;;;;;;;;;;;;5.14;83.75;96749.25;5077570;28;19953;-77
2021/10/17 05:35:16;;;;;;;;;;;;;;;5.16;84.13;96742.09;5076719;28;20039;-77
2021/10/17 05:37:42;;;;;;;;;;;;;;;5.17;83.92;96738.53;5076925;28;20049;-77
2021/10/17 05:40:08;;;;;;;;;;;;;;;5.18;83.97;96741.94;5076928;28;20391;-77
2021/10/17 05:42:33;;;;;;;;;;;;;;;5.19;84.03;96744.38;5077026;28;19960;-77
2021/10/17 05:44:59;;;;;;;;;;;;;;;5.20;83.67;96742.56;5076618;28;19974;-77
2021/10/17 05:47:25;;;;;;;;;;;;;;;5.22;83.57;96745.78;5076817;28;20330;-77
2021/10/17 05:49:51;;;;;;;;;;;;;;;5.22;83.39;96745.78;5076584;28;19957;-77
2021/10/17 05:52:17;;;;;;;;;;;;;;;5.22;83.46;96751.00;5076631;28;20036;-77
2021/10/17 05:54:43;;;;;;;;;;;;;;;5.21;83.22;96746.78;5077120;28;19970;-77
2021/10/17 05:57:09;;;;;;;;;;;;;;;5.19;83.62;96754.75;5076451;28;19961;-77
2021/10/17 05:59:35;;;;;;;;;;;;;;;5.19;83.77;96749.56;5076510;28;20046;-77
2021/10/17 06:02:01;;;;;;;;;;;;;;;5.17;83.38;96751.53;5076350;28;19963;-77
2021/10/17 06:04:26;;;;;;;;;;;;;;;5.15;82.98;96753.50;5076800;28;20016;-77
2021/10/17 06:06:52;;;;;;;;;;;;;;;5.16;83.05;96760.28;5076468;28;19999;-77
2021/10/17 06:09:19;;;;;;;;;;;;;;;5.17;83.35;96761.13;5076234;28;20395;-77
2021/10/17 06:11:45;;;;;;;;;;;;;;;5.17;83.38;96755.94;5076433;28;19955;-77
2021/10/17 06:14:11;;;;;;;;;;;;;;;5.18;83.53;96766.13;5076659;28;20450;-77
2021/10/17 06:16:37;;;;;;;;;;;;;;;5.19;83.47;96772.97;5076408;28;20001;-77
2021/10/17 06:19:03;;;;;;;;;;;;;;;5.19;83.02;96775.56;5075959;28;20006;-78
2021/10/17 06:21:29;;;;;;;;;;;;;;;5.21;83.02;96793.59;5076017;28;20417;-77
2021/10/17 06:23:55;;;;;;;;;;;;;;;5.22;83.09;96785.59;5075374;28;19965;-77
2021/10/17 06:26:20;;;;;;;;;;;;;;;5.26;83.03;96792.06;5076106;28;19962;-77
2021/10/17 06:28:46;;;;;;;;;;;;;;;5.29;82.65;96798.69;5076417;28;20003;-77
2021/10/17 06:31:12;;;;;;;;;;;;;;;5.32;82.61;96802.75;5076009;28;20309;-77
2021/10/17 06:33:38;;;;;;;;;;;;;;;5.34;82.80;96803.41;5075963;28;19963;-77
2021/10/17 06:36:04;;;;;;;;;;;;;;;5.36;82.12;96804.03;5075804;28;19961;-77
2021/10/17 06:38:30;;;;;;;;;;;;;;;5.40;82.04;96805.28;5076158;28;20388;-77
2021/10/17 06:40:56;;;;;;;;;;;;;;;5.44;81.98;96803.97;5075840;28;19963;-77
2021/10/17 06:43:22;;;;;;;;;;;;;;;5.52;82.01;96809.06;5075891;28;20035;-77
2021/10/17 06:45:48;;;;;;;;;;;;;;;5.58;82.01;96803.16;5075862;28;19958;-77
2021/10/17 06:48:14;;;;;;;;;;;;;;;5.64;82.02;96806.84;5075827;28;19954;-77
2021/10/17 06:50:39;;;;;;;;;;;;;;;5.78;81.78;96813.88;5075743;28;20437;-77
2021/10/17 06:53:05;;;;;;;;;;;;;;;6.00;81.67;96809.59;5075394;28;20070;-77
2021/10/17 06:55:31;;;;;;;;;;;;;;;6.27;81.09;96809.94;5075991;28;20009;-77
2021/10/17 06:57:57;;;;;;;;;;;;;;;6.51;80.53;96816.66;5075351;28;20427;-77
2021/10/17 07:00:23;;;;;;;;;;;;;;;6.73;80.19;96814.09;5075448;28;19960;-77
2021/10/17 07:02:49;;;;;;;;;;;;;;;6.90;80.66;96821.47;5075733;28;19954;-77
2021/10/17 07:05:15;;;;;;;;;;;;;;;7.07;80.01;96824.66;5075238;28;19960;-77
2021/10/17 07:07:41;;;;;;;;;;;;;;;7.22;79.74;96824.59;5075225;28;20325;-77
2021/10/17 07:10:07;;;;;;;;;;;;;;;7.27;79.88;96818.81;5075245;28;19954;-77
2021/10/17 07:12:33;;;;;;;;;;;;;;;7.32;79.28;96832.09;5075111;28;19953;-77
2021/10/17 07:14:58;;;;;;;;;;;;;;;7.38;79.28;96830.56;5075021;28;19980;-77
2021/10/17 07:17:24;;;;;;;;;;;;;;;7.42;79.37;96826.56;5074198;28;19965;-78
2021/10/17 07:19:50;;;;;;;;;;;;;;;7.43;78.64;96822.97;5074907;28;19957;-77
2021/10/17 07:22:16;;;;;;;;;;;;;;;7.38;78.60;96827.94;5075391;28;19959;-77
2021/10/17 07:24:42;;;;;;;;;;;;;;;7.31;78.55;96827.91;5074779;28;19963;-77
2021/10/17 07:27:08;;;;;;;;;;;;;;;7.25;79.45;96831.25;5074960;28;19950;-77
2021/10/17 07:29:34;;;;;;;;;;;;;;;7.29;79.80;96830.69;5074859;28;20424;-77
2021/10/17 07:32:00;;;;;;;;;;;;;;;7.37;79.64;96829.75;5074860;28;20043;-77
2021/10/17 07:34:26;;;;;;;;;;;;;;;7.41;79.57;96828.38;5074631;28;19959;-77
2021/10/17 07:36:52;;;;;;;;;;;;;;;7.46;79.69;96836.44;5074748;28;20000;-77
2021/10/17 07:39:18;;;;;;;;;;;;;;;7.54;79.62;96840.72;5074512;28;19949;-77
2021/10/17 07:41:48;;;;;;;;;;;;;;;7.61;79.88;96843.38;5074695;28;20048;-77
2021/10/17 07:44:15;;;;;;;;;;;;;;;7.69;79.20;96843.25;5074824;28;20511;-77
2021/10/17 07:46:41;;;;;;;;;;;;;;;7.79;78.98;96848.97;5074558;28;19962;-77
2021/10/17 07:49:07;;;;;;;;;;;;;;;7.85;78.59;96842.97;5074421;28;19954;-77
2021/10/17 07:51:33;;;;;;;;;;;;;;;7.95;78.59;96837.41;5074640;28;19967;-77
2021/10/17 07:53:59;;;;;;;;;;;;;;;8.06;79.10;96849.94;5063167;28;19983;-77
2021/10/17 07:56:25;;;;;;;;;;;;;;;8.10;78.51;96847.72;5074447;28;19955;-77
2021/10/17 07:58:52;;;;;;;;;;;;;;;8.13;78.03;96839.53;5074336;28;19990;-77
2021/10/17 08:01:18;;;;;;;;;;;;;;;7.98;77.37;96850.09;5074462;28;19954;-77
2021/10/17 08:03:44;;;;;;;;;;;;;;;7.93;77.89;96850.63;5074393;28;19970;-77
2021/10/17 08:06:10;;;;;;;;;;;;;;;7.95;78.25;96844.44;5074076;28;19959;-77
2021/10/17 08:08:36;;;;;;;;;;;;;;;8.01;78.93;96857.53;5073260;28;19978;-77
2021/10/17 08:11:02;;;;;;;;;;;;;;;8.16;79.17;96852.19;5074089;28;19957;-77
2021/10/17 08:13:29;;;;;;;;;;;;;;;8.27;78.61;96853.44;5074071;28;20391;-77
2021/10/17 08:15:55;;;;;;;;;;;;;;;8.26;78.52;96855.25;5074057;28;19971;-77
2021/10/17 08:18:22;;;;;;;;;;;;;;;8.21;79.17;96855.06;5073953;28;19940;-77
2021/10/17 08:20:48;;;;;;;;;;;;;;;8.02;78.90;96851.31;5073830;28;19955;-77
2021/10/17 08:23:14;;;;;;;;;;;;;;;7.84;79.84;96853.59;5074250;28;19962;-77
2021/10/17 08:25:40;;;;;;;;;;;;;;;7.67;80.69;96859.09;5073761;28;19966;-77
2021/10/17 08:28:10;;;;;;;;;;;;;;;7.57;82.36;96863.84;5074036;28;19950;-77
2021/10/17 08:30:36;;;;;;;;;;;;;;;7.47;83.00;96858.91;5073664;28;19956;-77
2021/10/17 08:33:01;;;;;;;;;;;;;;;7.35;82.84;96862.22;5073866;28;20034;-77
2021/10/17 08:35:27;;;;;;;;;;;;;;;7.25;83.98;96858.13;5074058;28;20042;-77
2021/10/17 08:37:53;;;;;;;;;;;;;;;7.15;84.55;96852.41;5073600;28;20363;-77
2021/10/17 08:40:19;;;;;;;;;;;;;;;7.16;85.07;96855.81;5074011;28;19971;-76
2021/10/17 08:42:45;;;;;;;;;;;;;;;7.16;85.52;96859.25;5073777;28;20323;-77
2021/10/17 08:45:11;;;;;;;;;;;;;;;7.23;86.47;96859.31;5073341;28;19960;-76
2021/10/17 08:47:38;;;;;;;;;;;;;;;7.28;85.73;96862.16;5073070;28;20399;-76
2021/10/17 08:50:05;;;;;;;;;;;;;;;7.37;85.95;96865.44;5073544;28;19959;-76
2021/10/17 08:52:31;;;;;;;;;;;;;;;7.41;85.27;96872.75;5073294;28;20835;-76
2021/10/17 08:54:57;;;;;;;;;;;;;;;7.47;85.80;96865.94;5073627;28;19974;-76
2021/10/17 08:57:23;;;;;;;;;;;;;;;7.51;85.33;96860.16;5073673;28;20407;-77
2021/10/17 08:59:50;;;;;;;;;;;;;;;7.54;85.72;96877.28;5073424;28;19974;-76
2021/10/17 09:02:18;;;;;;;;;;;;;;;7.58;85.50;96869.84;5073542;28;20318;-76
2021/10/17 09:05:05;;;;;;;;;;;;;;;7.62;86.70;96869.31;5072832;28;19970;-76
2021/10/17 09:07:31;;;;;;;;;;;;;;;7.63;85.50;96873.53;5062761;28;19955;-76
2021/10/17 09:10:26;;;;;;;;;;;;;;;7.60;85.28;96865.25;5073260;28;20010;-76
2021/10/17 09:12:52;;;;;;;;;;;;;;;7.57;86.03;96868.25;5068775;28;20329;-76
2021/10/17 09:15:28;;;;;;;;;;;;;;;7.61;86.26;96866.88;5073349;28;19966;-76
2021/10/17 09:18:13;;;;;;;;;;;;;;;7.67;85.87;96866.13;5073290;28;19955;-76
2021/10/17 09:20:49;;;;;;;;;;;;;;;7.66;85.72;96864.50;5073563;28;20335;-76
2021/10/17 09:23:16;;;;;;;;;;;;;;;7.61;85.86;96856.44;5073201;28;19959;-76
2021/10/17 09:25:42;;;;;;;;;;;;;;;7.56;85.32;96856.19;5073683;28;19973;-76
2021/10/17 09:28:15;;;;;;;;;;;;;;;7.57;87.19;96863.84;5073088;28;20439;-76
2021/10/17 09:30:41;;;;;;;;;;;;;;;7.56;86.78;96857.00;5073297;28;19960;-76
2021/10/17 09:33:19;;;;;;;;;;;;;;;7.58;87.23;96855.03;5073343;28;19955;-76
2021/10/17 09:35:44;;;;;;;;;;;;;;;7.58;86.71;96849.81;5072878;28;19960;-76
2021/10/17 09:38:10;;;;;;;;;;;;;;;7.55;86.99;96855.38;5073065;28;20053;-76
2021/10/17 09:40:39;;;;;;;;;;;;;;;7.60;87.52;96860.88;5073331;28;19958;-76
2021/10/17 09:43:08;;;;;;;;;;;;;;;7.66;87.17;96852.25;5072922;28;20438;-76
2021/10/17 09:45:34;;;;;;;;;;;;;;;7.70;87.86;96848.25;5072834;28;20341;-76
2021/10/17 09:48:00;;;;;;;;;;;;;;;7.77;88.14;96856.16;5073046;28;19959;-76
2021/10/17 09:50:26;;;;;;;;;;;;;;;7.84;88.14;96851.78;5073380;28;20331;-76
2021/10/17 09:52:56;;;;;;;;;;;;;;;7.89;86.88;96849.41;5073040;28;19981;-76
2021/10/17 09:55:23;;;;;;;;;;;;;;;7.93;86.43;96850.63;5073049;28;20410;-76
2021/10/17 09:57:49;;;;;;;;;;;;;;;7.96;86.14;96853.88;5072760;28;19952;-76
2021/10/17 10:00:15;;;;;;;;;;;;;;;7.97;86.83;96845.84;5075051;28;20419;-76
2021/10/17 10:02:44;;;;;;;;;;;;;;;7.99;86.52;96843.06;5076443;28;20320;-76
2021/10/17 10:05:10;;;;;;;;;;;;;;;8.06;86.49;96849.94;5076180;28;19962;-76
2021/10/17 10:07:37;;;;;;;;;;;;;;;8.08;87.30;96839.28;5076516;28;19973;-76
2021/10/17 10:10:04;;;;;;;;;;;;;;;8.11;86.94;96844.13;5076560;28;19955;-76
2021/10/17 10:12:31;;;;;;;;;;;;;;;8.17;86.45;96843.38;5076283;28;19943;-76
2021/10/17 10:14:58;;;;;;;;;;;;;;;8.27;86.24;96841.22;5076360;28;19958;-76
2021/10/17 10:17:25;;;;;;;;;;;;;;;8.33;85.94;96845.66;5076152;28;19953;-76
2021/10/17 10:19:51;;;;;;;;;;;;;;;8.43;85.90;96847.94;5076977;28;19963;-76
2021/10/17 10:22:17;;;;;;;;;;;;;;;8.49;85.87;96846.38;5076104;28;19968;-76
2021/10/17 10:24:44;;;;;;;;;;;;;;;8.50;86.07;96846.19;5076366;28;19972;-76
2021/10/17 10:27:10;;;;;;;;;;;;;;;8.57;85.63;96846.22;5075826;28;20016;-76
2021/10/17 10:29:36;;;;;;;;;;;;;;;8.66;85.33;96844.22;5076048;28;19957;-76
2021/10/17 10:32:04;;;;;;;;;;;;;;;8.76;85.79;96839.44;5076046;28;20005;-76
2021/10/17 10:34:35;;;;;;;;;;;;;;;8.89;84.91;96844.69;5075843;28;19959;-76
2021/10/17 10:37:15;;;;;;;;;;;;;;;9.02;84.83;96846.53;5076076;28;19951;-75
2021/10/17 10:39:59;;;;;;;;;;;;;;;9.12;83.32;96840.94;5075998;28;19961;-76
2021/10/17 10:42:32;;;;;;;;;;;;;;;9.22;83.52;96851.81;5075902;28;20106;-76
2021/10/17 10:45:15;;;;;;;;;;;;;;;9.21;81.80;96844.16;5075664;28;19967;-76
2021/10/17 10:47:42;;;;;;;;;;;;;;;9.15;82.50;96840.53;5075754;28;20319;-76
2021/10/17 10:50:08;;;;;;;;;;;;;;;9.24;82.63;96835.91;5075962;28;19961;-76
2021/10/17 10:52:33;;;;;;;;;;;;;;;9.37;83.31;96837.75;5075355;28;20326;-76
2021/10/17 10:55:04;;;;;;;;;;;;;;;9.49;82.42;96833.50;5075681;28;20033;-76
2021/10/17 10:57:36;;;;;;;;;;;;;;;9.60;81.82;96835.53;5075637;28;20405;-76
2021/10/17 11:00:02;;;;;;;;;;;;;;;9.71;81.93;96832.31;5075811;28;19963;-76
2021/10/17 11:02:28;;;;;;;;;;;;;;;9.81;81.12;96833.72;5075515;28;19951;-76
2021/10/17 11:04:55;;;;;;;;;;;;;;;9.88;81.03;96839.75;5075155;28;19987;-76
2021/10/17 11:07:21;;;;;;;;;;;;;;;9.95;80.87;96836.13;5075332;28;20333;-76
2021/10/17 11:09:48;;;;;;;;;;;;;;;9.96;79.82;96840.34;5075536;28;19947;-76
2021/10/17 11:12:32;;;;;;;;;;;;;;;10.08;80.33;96835.28;5075061;28;20029;-76
2021/10/17 11:14:59;;;;;;;;;;;;;;;10.21;78.98;96829.22;5075144;28;19953;-76
2021/10/17 11:17:25;;;;;;;;;;;;;;;10.20;78.90;96827.59;5075173;28;20325;-76
2021/10/17 11:19:51;;;;;;;;;;;;;;;10.25;79.37;96825.16;5073927;28;19995;-76
2021/10/17 11:22:17;;;;;;;;;;;;;;;10.30;77.99;96825.38;5074920;28;20434;-76
2021/10/17 11:24:43;;;;;;;;;;;;;;;10.43;79.15;96815.84;5074887;28;19971;-75
2021/10/17 11:27:13;;;;;;;;;;;;;;;10.65;79.19;96817.19;5074973;28;19956;-75
2021/10/17 11:29:45;;;;;;;;;;;;;;;10.86;78.38;96807.41;5074717;28;19957;-76
2021/10/17 11:32:18;;;;;;;;;;;;;;;11.01;76.96;96802.66;5075377;28;20293;-75
2021/10/17 11:35:00;;;;;;;;;;;;;;;11.13;76.00;96798.34;5074749;28;19962;-75
2021/10/17 11:37:27;;;;;;;;;;;;;;;11.21;76.26;96793.84;5074519;28;19963;-75
2021/10/17 11:39:54;;;;;;;;;;;;;;;11.30;76.13;96789.94;5074932;28;19960;-77
2021/10/17 11:42:22;;;;;;;;;;;;;;;11.36;75.20;96786.47;5074630;28;19962;-76
2021/10/17 11:44:48;;;;;;;;;;;;;;;11.32;74.18;96775.59;5074519;28;19973;-75
2021/10/17 11:47:20;;;;;;;;;;;;;;;11.42;75.10;96779.53;5075013;28;19951;-75
2021/10/17 11:49:49;;;;;;;;;;;;;;;11.53;75.55;96784.91;5074789;28;19968;-75
2021/10/17 11:52:17;;;;;;;;;;;;;;;11.69;73.25;96782.75;5074225;28;19961;-74
2021/10/17 11:54:45;;;;;;;;;;;;;;;11.75;73.70;96779.25;5074514;28;19958;-75
2021/10/17 11:57:27;;;;;;;;;;;;;;;11.72;72.26;96769.97;5074254;28;20295;-75
2021/10/17 12:00:00;;;;;;;;;;;;;;;11.68;72.56;96779.31;5074356;28;19956;-75
2021/10/17 12:02:30;;;;;;;;;;;;;;;11.73;74.14;96768.94;5074297;28;19966;-75
2021/10/17 12:04:56;;;;;;;;;;;;;;;11.83;73.88;96763.22;5064489;28;19974;-76
2021/10/17 12:07:22;;;;;;;;;;;;;;;11.86;70.44;96754.06;5074055;28;19968;-75
2021/10/17 12:09:48;;;;;;;;;;;;;;;11.89;72.97;96762.38;5074187;28;19962;-75
2021/10/17 12:12:20;;;;;;;;;;;;;;;11.94;72.27;96756.44;5074005;28;20415;-76
2021/10/17 12:14:58;;;;;;;;;;;;;;;12.02;72.19;96753.53;5074363;28;19957;-75
2021/10/17 12:17:24;;;;;;;;;;;;;;;12.14;73.12;96753.63;5074023;28;19952;-76
2021/10/17 12:20:04;;;;;;;;;;;;;;;12.25;71.63;96759.97;5073621;28;20362;-76
2021/10/17 12:22:30;;;;;;;;;;;;;;;12.33;72.30;96754.41;5066450;28;19959;-75
2021/10/17 12:24:57;;;;;;;;;;;;;;;12.42;71.97;96757.53;5073638;28;19979;-76
2021/10/17 12:27:36;;;;;;;;;;;;;;;12.50;71.77;96752.75;5073815;28;19978;-75
2021/10/17 12:30:04;;;;;;;;;;;;;;;12.61;71.63;96753.03;5073513;28;19954;-75
2021/10/17 12:32:48;;;;;;;;;;;;;;;12.66;71.98;96759.25;5073818;28;19959;-75
2021/10/17 12:35:19;;;;;;;;;;;;;;;12.92;74.42;96752.00;5073626;28;20309;-75
2021/10/17 12:37:45;;;;;;;;;;;;;;;13.22;73.54;96749.31;5073519;28;19953;-75
2021/10/17 12:40:11;;;;;;;;;;;;;;;13.47;67.92;96720.16;5073623;28;20333;-75
2021/10/17 12:42:46;;;;;;;;;;;;;;;13.46;68.42;96734.38;5073546;28;19958;-75
2021/10/17 12:45:13;;;;;;;;;;;;;;;13.31;69.03;96736.63;5073321;28;19962;-76
2021/10/17 12:47:40;;;;;;;;;;;;;;;13.22;68.59;96727.44;5073646;28;19958;-76
2021/10/17 12:50:13;;;;;;;;;;;;;;;13.22;69.44;96732.72;5073289;28;19962;-75
2021/10/17 12:52:39;;;;;;;;;;;;;;;13.27;69.30;96724.91;5073470;28;19980;-76
2021/10/17 12:55:05;;;;;;;;;;;;;;;13.34;69.17;96729.09;5073561;28;20331;-76